Terminal Aerodrome Forecast
Issued by NWS Louisville, KY

Home | Current Version | Previous Version | Text Only | Print | Product List | Glossary On
Versions: 1 2 3 4 5 6 7 8 9 10 11 12 13 14 15
814
FTUS43 KLMK 220520
TAFSDF
TAF
KSDF 220520Z 2206/2312 VRB03KT P6SM SCT250
     FM221400 25004KT P6SM SCT050 BKN250
     FM221600 26006KT P6SM SCT050 PROB30 2217/2223 5SM TS BKN035CB
     FM230000 VRB04KT P6SM BKN250=

USA.gov is the U.S. government's official web portal to all federal, state and local government web resources and services.